createdAt,value
2023-04-10T00:02:15.770Z,19.90
2023-04-10T00:04:44.065Z,17.80
2023-04-10T00:07:12.185Z,16.90
2023-04-10T00:09:40.167Z,15.60
2023-04-10T00:12:08.003Z,15.80
2023-04-10T00:14:35.946Z,15.50
2023-04-10T00:17:03.895Z,15.20
2023-04-10T00:19:31.780Z,16.60
2023-04-10T00:22:00.108Z,17.10
2023-04-10T00:24:28.055Z,17.90
2023-04-10T00:26:57.604Z,18.40
2023-04-10T00:29:25.748Z,17.60
2023-04-10T00:31:53.822Z,18.40
2023-04-10T00:34:21.931Z,18.90
2023-04-10T00:36:49.899Z,19.70
2023-04-10T00:39:17.833Z,19.20
2023-04-10T00:41:46.034Z,20.30
2023-04-10T00:44:13.914Z,19.90
2023-04-10T00:46:41.848Z,19.90
2023-04-10T00:49:10.942Z,18.50
2023-04-10T00:51:39.001Z,18.30
2023-04-10T00:54:10.362Z,15.60
2023-04-10T00:56:38.278Z,16.30
2023-04-10T00:59:07.292Z,16.30
2023-04-10T01:01:35.740Z,15.60
2023-04-10T01:04:04.225Z,15.50
2023-04-10T01:07:00.559Z,14.40
2023-04-10T01:09:40.762Z,14.20
2023-04-10T01:12:29.579Z,15.00
2023-04-10T01:15:17.334Z,16.90
2023-04-10T01:17:57.285Z,16.50
2023-04-10T01:20:30.206Z,15.90
2023-04-10T01:23:21.985Z,16.90
2023-04-10T01:26:06.575Z,17.50
2023-04-10T01:28:55.581Z,17.40
2023-04-10T01:31:51.017Z,17.40
2023-04-10T01:34:24.316Z,14.90
2023-04-10T01:37:02.861Z,16.40
2023-04-10T01:39:36.444Z,15.60
2023-04-10T01:42:06.976Z,15.00
2023-04-10T01:44:43.115Z,14.80
2023-04-10T01:47:15.732Z,13.20
2023-04-10T01:49:46.932Z,13.90
2023-04-10T01:52:16.730Z,12.60
2023-04-10T01:54:50.603Z,12.40
2023-04-10T01:57:25.316Z,14.60
2023-04-10T01:59:59.032Z,15.70
2023-04-10T02:02:32.165Z,15.40
2023-04-10T02:05:01.319Z,15.60
2023-04-10T02:07:46.424Z,15.70
2023-04-10T02:10:50.832Z,16.50
2023-04-10T02:13:22.288Z,17.10
2023-04-10T02:15:52.836Z,16.60
2023-04-10T02:18:23.022Z,16.60
2023-04-10T02:20:52.845Z,15.90
2023-04-10T02:23:21.263Z,17.70
2023-04-10T02:25:49.475Z,16.60
2023-04-10T02:28:17.563Z,16.30
2023-04-10T02:30:45.679Z,15.80
2023-04-10T02:33:14.012Z,15.10
2023-04-10T02:35:42.507Z,14.70
2023-04-10T02:38:10.468Z,14.10
2023-04-10T02:40:38.807Z,13.60
2023-04-10T02:45:42.684Z,13.10
2023-04-10T02:48:12.811Z,13.00
2023-04-10T02:50:46.372Z,15.50
2023-04-10T02:53:16.763Z,16.40
2023-04-10T02:55:44.716Z,16.00
2023-04-10T02:58:14.862Z,15.00
2023-04-10T03:00:48.816Z,15.10
2023-04-10T03:03:21.760Z,15.70
2023-04-10T03:05:54.012Z,16.50
2023-04-10T03:08:27.127Z,17.60
2023-04-10T03:10:55.059Z,16.70
2023-04-10T03:13:23.746Z,16.10
2023-04-10T03:15:51.841Z,17.10
2023-04-10T03:18:20.114Z,16.80
2023-04-10T03:20:49.696Z,17.60
2023-04-10T03:23:20.760Z,16.00
2023-04-10T03:25:54.934Z,15.90
2023-04-10T03:28:25.680Z,14.50
2023-04-10T03:30:53.719Z,14.40
2023-04-10T03:33:21.955Z,12.40
2023-04-10T03:35:50.275Z,12.20
2023-04-10T03:38:18.317Z,13.50
2023-04-10T03:40:46.346Z,14.80
2023-04-10T03:43:14.313Z,14.50
2023-04-10T03:45:42.730Z,15.50
2023-04-10T03:48:10.879Z,16.10
2023-04-10T03:50:42.620Z,16.30
2023-04-10T03:53:10.660Z,16.10
2023-04-10T03:55:38.748Z,16.50
2023-04-10T03:58:06.776Z,16.50
2023-04-10T04:00:35.904Z,16.20
2023-04-10T04:03:19.019Z,16.20
2023-04-10T04:06:07.577Z,15.80
2023-04-10T04:08:36.534Z,14.80
2023-04-10T04:11:24.678Z,14.80
2023-04-10T04:14:15.468Z,13.70
2023-04-10T04:16:54.961Z,12.50
2023-04-10T04:19:36.455Z,11.90
2023-04-10T04:22:11.006Z,11.90
2023-04-10T04:25:12.011Z,13.00
2023-04-10T04:28:01.569Z,14.10
2023-04-10T04:30:35.519Z,14.20
2023-04-10T04:33:26.008Z,14.70
2023-04-10T04:36:03.826Z,13.00
2023-04-10T04:38:37.648Z,15.00
2023-04-10T04:41:24.397Z,14.10
2023-04-10T04:44:10.504Z,14.50
2023-04-10T04:46:58.710Z,15.00
2023-04-10T04:49:29.478Z,14.30
2023-04-10T04:52:27.651Z,14.80
2023-04-10T04:55:18.590Z,14.90
2023-04-10T04:58:00.844Z,13.60
2023-04-10T05:00:55.320Z,12.30
2023-04-10T05:03:42.007Z,12.20
2023-04-10T05:06:32.911Z,11.50
2023-04-10T05:09:18.974Z,11.00
2023-04-10T05:12:07.179Z,11.40
2023-04-10T05:14:53.802Z,12.60
2023-04-10T05:17:53.926Z,14.10
2023-04-10T05:20:42.144Z,13.50
2023-04-10T05:23:37.799Z,13.40
2023-04-10T05:26:19.653Z,12.60
2023-04-10T05:29:00.432Z,12.60
2023-04-10T05:31:39.616Z,12.00
2023-04-10T05:34:20.691Z,11.90
2023-04-10T05:37:21.140Z,11.70
2023-04-10T05:40:01.339Z,11.30
2023-04-10T05:42:35.025Z,11.70
2023-04-10T05:45:25.735Z,12.20
2023-04-10T05:48:12.381Z,11.10
2023-04-10T05:51:17.264Z,11.60
2023-04-10T05:54:07.835Z,12.10
2023-04-10T05:57:02.121Z,11.40
2023-04-10T05:59:45.287Z,14.60
2023-04-10T06:02:25.255Z,14.90
2023-04-10T06:04:53.958Z,13.40
2023-04-10T06:07:22.460Z,14.00
2023-04-10T06:09:50.569Z,12.70
2023-04-10T06:12:18.571Z,14.30
2023-04-10T06:14:48.012Z,12.10
2023-04-10T06:17:21.838Z,13.80
2023-04-10T06:19:49.903Z,12.60
2023-04-10T06:22:19.800Z,12.20
2023-04-10T06:24:47.739Z,11.60
2023-04-10T06:27:16.567Z,11.10
2023-04-10T06:29:46.162Z,11.60
2023-04-10T06:32:16.787Z,12.50
2023-04-10T06:34:46.646Z,9.40
2023-04-10T06:37:14.814Z,11.00
2023-04-10T06:39:42.943Z,12.20
2023-04-10T06:42:11.196Z,12.50
2023-04-10T06:44:46.175Z,10.60
2023-04-10T06:47:17.048Z,14.10
2023-04-10T06:49:45.137Z,12.20
2023-04-10T06:52:13.213Z,12.40
2023-04-10T06:54:41.515Z,12.10
2023-04-10T06:57:09.890Z,11.90
2023-04-10T06:59:37.914Z,11.30
2023-04-10T07:02:06.290Z,16.70
2023-04-10T07:04:34.308Z,12.30
2023-04-10T07:07:02.544Z,11.50
2023-04-10T07:09:30.881Z,11.40
2023-04-10T07:11:58.953Z,12.00
2023-04-10T07:14:26.953Z,11.10
2023-04-10T07:16:54.964Z,9.80
2023-04-10T07:19:23.028Z,11.30
2023-04-10T07:21:51.272Z,10.50
2023-04-10T07:24:19.644Z,9.20
2023-04-10T07:26:47.754Z,10.60
2023-04-10T07:29:16.092Z,9.90
2023-04-10T07:31:44.545Z,8.50
2023-04-10T07:34:12.880Z,9.30
2023-04-10T07:36:40.974Z,10.20
2023-04-10T07:39:09.068Z,9.80
2023-04-10T07:41:37.065Z,8.30
2023-04-10T07:44:05.882Z,7.20
2023-04-10T07:46:34.014Z,6.80
2023-04-10T07:49:02.552Z,6.30
2023-04-10T07:51:31.070Z,6.00
2023-04-10T07:53:59.264Z,5.80
2023-04-10T07:56:27.484Z,5.80
2023-04-10T07:58:55.791Z,6.00
2023-04-10T08:01:24.597Z,4.00
2023-04-10T08:03:59.044Z,3.80
2023-04-10T08:06:28.037Z,2.80
2023-04-10T08:08:56.337Z,2.90
2023-04-10T08:11:30.310Z,3.50
2023-04-10T08:14:03.229Z,4.00
2023-04-10T08:16:33.333Z,3.40
2023-04-10T08:19:02.856Z,3.90
2023-04-10T08:21:34.335Z,4.10
2023-04-10T08:24:04.030Z,3.00
2023-04-10T08:26:32.452Z,4.30
2023-04-10T08:29:01.046Z,4.20
2023-04-10T08:31:30.134Z,4.20
2023-04-10T08:33:59.164Z,3.50
2023-04-10T08:36:28.361Z,2.80
2023-04-10T08:38:56.542Z,3.90
2023-04-10T08:41:24.721Z,3.90
2023-04-10T08:43:53.312Z,3.40
2023-04-10T08:46:24.714Z,4.00
2023-04-10T08:49:06.155Z,4.00
2023-04-10T08:51:49.732Z,2.70
2023-04-10T08:54:26.853Z,3.60
2023-04-10T08:56:56.996Z,4.40
2023-04-10T08:59:25.443Z,3.90
2023-04-10T09:01:54.168Z,4.30
2023-04-10T09:04:24.749Z,3.30
2023-04-10T09:06:53.565Z,4.50
2023-04-10T09:09:21.730Z,4.10
2023-04-10T09:11:53.084Z,3.60
2023-04-10T09:14:25.690Z,4.10
2023-04-10T09:16:55.345Z,4.00
2023-04-10T09:19:34.475Z,3.70
2023-04-10T09:22:02.686Z,4.30
2023-04-10T09:24:31.105Z,3.60
2023-04-10T09:26:59.155Z,3.40
2023-04-10T09:29:38.221Z,3.50
2023-04-10T09:32:06.487Z,3.50
2023-04-10T09:34:34.612Z,2.40
2023-04-10T09:37:02.688Z,3.20
2023-04-10T09:39:38.851Z,3.70
2023-04-10T09:42:07.269Z,4.00
2023-04-10T09:44:37.876Z,3.00
2023-04-10T09:47:15.016Z,4.50
2023-04-10T09:49:52.669Z,3.80
2023-04-10T09:52:32.475Z,3.00
2023-04-10T09:55:05.446Z,3.10
2023-04-10T09:57:35.594Z,3.30
2023-04-10T10:00:07.109Z,3.30
2023-04-10T10:02:42.484Z,3.20
2023-04-10T10:05:11.725Z,3.40
2023-04-10T10:07:40.318Z,3.60
2023-04-10T10:10:11.790Z,3.60
2023-04-10T10:12:55.140Z,2.70
2023-04-10T10:15:49.618Z,4.80
2023-04-10T10:18:44.232Z,3.40
2023-04-10T10:21:14.541Z,3.50
2023-04-10T10:23:45.472Z,3.90
2023-04-10T10:26:15.498Z,4.30
2023-04-10T10:28:47.142Z,3.20
2023-04-10T10:31:20.305Z,3.30
2023-04-10T10:33:52.543Z,3.90
2023-04-10T10:36:21.979Z,3.10
2023-04-10T10:39:24.733Z,1.40
2023-04-10T10:42:20.752Z,2.90
2023-04-10T10:45:08.640Z,3.80
2023-04-10T10:47:44.933Z,3.70
2023-04-10T10:50:13.424Z,4.20
2023-04-10T10:52:43.785Z,3.00
2023-04-10T10:55:40.139Z,2.80
2023-04-10T10:58:12.257Z,4.20
2023-04-10T11:00:52.948Z,3.80
2023-04-10T11:03:21.076Z,3.80
2023-04-10T11:05:58.727Z,3.50
2023-04-10T11:08:33.369Z,3.80
2023-04-10T11:11:07.920Z,3.30
2023-04-10T11:13:56.483Z,4.00
2023-04-10T11:16:32.107Z,3.50
2023-04-10T11:19:12.983Z,3.00
2023-04-10T11:22:02.611Z,3.30
2023-04-10T11:25:00.491Z,3.20
2023-04-10T11:27:49.442Z,3.40
2023-04-10T11:30:32.276Z,4.10
2023-04-10T11:33:02.107Z,4.10
2023-04-10T11:35:32.079Z,3.30
2023-04-10T11:38:11.779Z,2.60
2023-04-10T11:41:04.511Z,3.80
2023-04-10T11:43:35.109Z,3.30
2023-04-10T11:46:06.586Z,4.00
2023-04-10T11:48:37.045Z,4.30
2023-04-10T11:51:10.956Z,3.90
2023-04-10T11:53:40.550Z,4.30
2023-04-10T11:56:17.261Z,3.70
2023-04-10T11:58:45.552Z,3.70
2023-04-10T12:01:15.317Z,4.20
2023-04-10T12:03:44.669Z,3.70
2023-04-10T12:06:14.926Z,3.20
2023-04-10T12:08:49.513Z,4.60
2023-04-10T12:11:20.704Z,6.60
2023-04-10T12:13:53.670Z,4.50
2023-04-10T12:16:22.405Z,3.20
2023-04-10T12:18:50.925Z,3.10
2023-04-10T12:21:19.573Z,3.60
2023-04-10T12:23:47.954Z,4.10
2023-04-10T12:26:18.927Z,4.70
2023-04-10T12:28:55.576Z,4.40
2023-04-10T12:31:31.916Z,4.70
2023-04-10T12:34:02.470Z,3.60
2023-04-10T12:36:32.304Z,4.60
2023-04-10T12:39:02.377Z,3.40
2023-04-10T12:41:33.137Z,4.60
2023-04-10T12:44:10.647Z,4.00
2023-04-10T12:46:40.572Z,4.20
2023-04-10T12:49:14.208Z,4.60
2023-04-10T12:51:48.962Z,4.70
2023-04-10T12:54:34.372Z,4.50
2023-04-10T12:57:04.458Z,4.70
2023-04-10T12:59:34.331Z,4.60
2023-04-10T13:02:02.752Z,5.10
2023-04-10T13:04:32.973Z,4.90
2023-04-10T13:07:01.271Z,5.00
2023-04-10T13:09:30.858Z,4.30
2023-04-10T13:11:59.109Z,4.60
2023-04-10T13:14:28.372Z,4.20
2023-04-10T13:16:56.633Z,3.90
2023-04-10T13:19:24.926Z,4.70
2023-04-10T13:21:53.305Z,4.40
2023-04-10T13:24:21.957Z,4.60
2023-04-10T13:26:50.220Z,2.60
2023-04-10T13:29:18.601Z,3.80
2023-04-10T13:31:46.876Z,4.00
2023-04-10T13:34:15.083Z,4.60
2023-04-10T13:36:43.517Z,4.70
2023-04-10T13:39:11.928Z,3.80
2023-04-10T13:41:40.348Z,3.90
2023-04-10T13:44:08.634Z,3.90
2023-04-10T13:46:37.037Z,4.40
2023-04-10T13:49:05.415Z,4.40
2023-04-10T13:51:33.544Z,4.50
2023-04-10T13:54:04.899Z,4.70
2023-04-10T13:56:33.321Z,4.00
2023-04-10T13:59:01.629Z,4.00
2023-04-10T14:01:29.748Z,3.80
2023-04-10T14:03:58.139Z,3.20
2023-04-10T14:06:27.493Z,4.50
2023-04-10T14:08:56.225Z,4.20
2023-04-10T14:11:24.657Z,4.60
2023-04-10T14:13:53.198Z,3.30
2023-04-10T14:16:21.477Z,4.20
2023-04-10T14:18:49.688Z,4.30
2023-04-10T14:21:20.022Z,4.40
2023-04-10T14:23:49.086Z,3.30
2023-04-10T14:26:17.514Z,4.60
2023-04-10T14:28:45.746Z,4.90
2023-04-10T14:31:14.051Z,4.60
2023-04-10T14:33:42.229Z,4.30
2023-04-10T14:36:10.616Z,4.40
2023-04-10T14:38:40.209Z,4.50
2023-04-10T14:41:08.652Z,3.10
2023-04-10T14:43:39.538Z,3.50
2023-04-10T14:46:07.554Z,3.40
2023-04-10T14:48:36.140Z,5.10
2023-04-10T14:51:10.542Z,4.90
2023-04-10T14:53:40.090Z,4.20
2023-04-10T14:56:15.651Z,4.00
2023-04-10T14:58:43.966Z,5.00
2023-04-10T15:01:13.649Z,4.70
2023-04-10T15:03:42.427Z,4.10
2023-04-10T15:06:10.733Z,4.80
2023-04-10T15:08:38.870Z,4.00
2023-04-10T15:11:07.422Z,3.90
2023-04-10T15:13:37.827Z,3.10
2023-04-10T15:16:08.220Z,3.80
2023-04-10T15:18:36.608Z,4.20
2023-04-10T15:21:05.203Z,4.10
2023-04-10T15:23:35.170Z,5.50
2023-04-10T15:26:04.335Z,4.90
2023-04-10T15:28:32.978Z,4.00
2023-04-10T15:31:01.453Z,4.50
2023-04-10T15:33:29.758Z,5.20
2023-04-10T15:35:57.869Z,4.40
2023-04-10T15:38:29.032Z,4.80
2023-04-10T15:40:57.621Z,5.40
2023-04-10T15:43:25.774Z,4.70
2023-04-10T15:45:53.831Z,5.60
2023-04-10T15:48:22.835Z,2.60
2023-04-10T15:50:51.154Z,5.00
2023-04-10T15:53:19.223Z,4.90
2023-04-10T15:55:47.830Z,4.90
2023-04-10T15:58:16.271Z,5.70
2023-04-10T16:00:44.497Z,5.10
2023-04-10T16:03:12.761Z,6.00
2023-04-10T16:05:41.706Z,6.00
2023-04-10T16:08:10.391Z,5.90
2023-04-10T16:10:39.744Z,4.70
2023-04-10T16:13:08.931Z,6.30
2023-04-10T16:15:39.615Z,6.40
2023-04-10T16:18:08.320Z,6.30
2023-04-10T16:20:36.830Z,5.90
2023-04-10T16:23:05.076Z,5.70
2023-04-10T16:25:33.212Z,4.50
2023-04-10T16:28:02.409Z,5.00
2023-04-10T16:30:31.328Z,4.60
2023-04-10T16:32:59.876Z,5.40
2023-04-10T16:35:28.062Z,5.30
2023-04-10T16:37:56.349Z,4.80
2023-04-10T16:40:28.186Z,4.90
2023-04-10T16:42:56.432Z,4.80
2023-04-10T16:45:24.730Z,5.20
2023-04-10T16:47:53.313Z,5.70
2023-04-10T16:50:21.345Z,5.60
2023-04-10T16:52:50.264Z,5.70
2023-04-10T16:55:18.455Z,6.10
2023-04-10T16:57:46.792Z,6.00
2023-04-10T17:00:16.689Z,6.80
2023-04-10T17:02:45.198Z,8.00
2023-04-10T17:05:13.837Z,8.90
2023-04-10T17:07:43.871Z,9.60
2023-04-10T17:10:13.310Z,7.90
2023-04-10T17:12:43.189Z,7.30
2023-04-10T17:15:12.588Z,8.70
2023-04-10T17:17:41.113Z,7.50
2023-04-10T17:20:10.098Z,6.90
2023-04-10T17:22:40.155Z,7.50
2023-04-10T17:25:09.612Z,7.10
2023-04-10T17:27:40.301Z,8.20
2023-04-10T17:30:13.540Z,7.00
2023-04-10T17:32:41.983Z,7.60
2023-04-10T17:35:10.539Z,7.70
2023-04-10T17:37:38.785Z,6.40
2023-04-10T17:40:07.996Z,9.70
2023-04-10T17:42:36.338Z,10.20
2023-04-10T17:45:05.328Z,10.30
2023-04-10T17:47:36.075Z,9.80
2023-04-10T17:50:05.048Z,8.50
2023-04-10T17:52:33.564Z,8.20
2023-04-10T17:55:02.672Z,9.60
2023-04-10T17:57:30.873Z,9.70
2023-04-10T17:59:59.139Z,10.30
2023-04-10T18:02:29.539Z,9.90
2023-04-10T18:04:57.901Z,9.10
2023-04-10T18:07:26.206Z,9.50
2023-04-10T18:09:54.545Z,9.60
2023-04-10T18:12:22.937Z,9.70
2023-04-10T18:14:52.421Z,9.70
2023-04-10T18:17:20.668Z,9.40
2023-04-10T18:19:51.335Z,8.70
2023-04-10T18:22:19.548Z,8.10
2023-04-10T18:24:49.777Z,9.30
2023-04-10T18:27:17.925Z,8.70
2023-04-10T18:29:46.365Z,8.60
2023-04-10T18:32:14.496Z,8.00
2023-04-10T18:34:42.705Z,8.10
2023-04-10T18:37:11.012Z,7.60
2023-04-10T18:39:39.382Z,7.80
2023-04-10T18:42:11.035Z,8.30
2023-04-10T18:44:39.684Z,7.50
2023-04-10T18:47:08.027Z,7.90
2023-04-10T18:49:36.454Z,7.60
2023-04-10T18:52:04.718Z,6.90
2023-04-10T18:54:35.014Z,7.40
2023-04-10T18:57:03.370Z,6.70
2023-04-10T18:59:32.731Z,6.90
2023-04-10T19:02:01.230Z,6.70
2023-04-10T19:04:29.656Z,7.30
2023-04-10T19:06:57.904Z,7.50
2023-04-10T19:09:26.386Z,7.40
2023-04-10T19:11:55.939Z,8.00
2023-04-10T19:14:24.210Z,8.40
2023-04-10T19:16:52.536Z,8.60
2023-04-10T19:19:20.797Z,9.30
2023-04-10T19:21:48.840Z,9.40
2023-04-10T19:24:16.983Z,9.00
2023-04-10T19:26:44.947Z,9.90
2023-04-10T19:29:13.633Z,9.50
2023-04-10T19:31:44.545Z,9.40
2023-04-10T19:34:12.894Z,8.70
2023-04-10T19:36:42.004Z,9.20
2023-04-10T19:39:09.991Z,8.00
2023-04-10T19:41:42.396Z,7.70
2023-04-10T19:44:10.868Z,8.00
2023-04-10T19:46:39.863Z,7.80
2023-04-10T19:49:08.212Z,7.70
2023-04-10T19:51:36.158Z,7.90
2023-04-10T19:54:04.181Z,7.90
2023-04-10T19:56:32.938Z,8.10
2023-04-10T19:59:01.135Z,8.40
2023-04-10T20:01:29.450Z,8.30
2023-04-10T20:03:57.808Z,8.30
2023-04-10T20:06:27.906Z,8.30
2023-04-10T20:08:56.096Z,8.70
2023-04-10T20:11:30.581Z,8.50
2023-04-10T20:13:59.550Z,7.90
2023-04-10T20:16:27.562Z,8.10
2023-04-10T20:18:56.183Z,8.90
2023-04-10T20:21:24.568Z,8.80
2023-04-10T20:23:52.534Z,9.30
2023-04-10T20:26:20.393Z,9.50
2023-04-10T20:28:48.361Z,10.10
2023-04-10T20:31:16.350Z,9.40
2023-04-10T20:33:44.472Z,10.50
2023-04-10T20:36:13.569Z,9.30
2023-04-10T20:38:41.655Z,9.10
2023-04-10T20:41:09.648Z,9.00
2023-04-10T20:43:37.558Z,8.10
2023-04-10T20:46:09.190Z,8.60
2023-04-10T20:48:39.005Z,8.80
2023-04-10T20:51:07.405Z,9.90
2023-04-10T20:53:35.360Z,9.50
2023-04-10T20:56:06.044Z,9.20
2023-04-10T20:58:34.709Z,9.60
2023-04-10T21:01:02.823Z,10.00
2023-04-10T21:03:32.540Z,10.70
2023-04-10T21:06:05.456Z,10.20
2023-04-10T21:08:33.511Z,10.20
2023-04-10T21:11:01.501Z,10.10
2023-04-10T21:13:29.426Z,10.70
2023-04-10T21:15:57.395Z,9.30
2023-04-10T21:18:25.377Z,9.30
2023-04-10T21:20:53.273Z,9.20
2023-04-10T21:23:21.185Z,10.10
2023-04-10T21:25:53.287Z,9.60
2023-04-10T21:28:21.452Z,10.70
2023-04-10T21:30:49.805Z,10.60
2023-04-10T21:33:17.732Z,10.50
2023-04-10T21:35:46.203Z,9.40
2023-04-10T21:38:14.100Z,9.80
2023-04-10T21:40:42.160Z,10.20
2023-04-10T21:43:10.060Z,10.80
2023-04-10T21:45:38.610Z,11.30
2023-04-10T21:48:06.612Z,10.90
2023-04-10T21:50:34.613Z,11.40
2023-04-10T21:53:02.867Z,10.80
2023-04-10T21:55:30.822Z,10.00
2023-04-10T21:57:58.740Z,10.30
2023-04-10T22:00:26.995Z,9.80
2023-04-10T22:02:55.072Z,9.70
2023-04-10T22:05:24.711Z,10.50
2023-04-10T22:07:53.089Z,10.10
2023-04-10T22:10:21.136Z,10.70
2023-04-10T22:12:49.511Z,10.60
2023-04-10T22:15:17.739Z,10.80
2023-04-10T22:17:45.761Z,10.30
2023-04-10T22:20:13.985Z,10.00
2023-04-10T22:22:41.895Z,10.40
2023-04-10T22:25:09.882Z,11.40
2023-04-10T22:27:37.849Z,11.00
2023-04-10T22:30:07.357Z,11.30
2023-04-10T22:32:35.380Z,11.50
2023-04-10T22:35:03.718Z,11.20
2023-04-10T22:37:31.671Z,10.70
2023-04-10T22:40:02.605Z,10.50
2023-04-10T22:42:32.019Z,10.90
2023-04-10T22:45:00.231Z,11.20
2023-04-10T22:47:28.140Z,11.20
2023-04-10T22:49:56.035Z,11.60
2023-04-10T22:52:24.156Z,12.30
2023-04-10T22:54:52.031Z,12.30
2023-04-10T22:57:19.984Z,12.80
2023-04-10T22:59:47.882Z,13.30
2023-04-10T23:02:15.943Z,13.50
2023-04-10T23:04:44.105Z,13.70
2023-04-10T23:07:12.215Z,14.20
2023-04-10T23:09:40.153Z,15.60
2023-04-10T23:12:08.336Z,14.40
2023-04-10T23:14:36.247Z,13.30
2023-04-10T23:17:04.172Z,11.30
2023-04-10T23:19:32.086Z,13.00
2023-04-10T23:22:00.048Z,12.00
2023-04-10T23:24:28.003Z,12.00
2023-04-10T23:26:55.853Z,13.40
2023-04-10T23:29:23.744Z,13.80
2023-04-10T23:31:51.559Z,14.90
2023-04-10T23:34:21.664Z,14.60
2023-04-10T23:36:49.574Z,14.90
2023-04-10T23:39:17.474Z,16.60
2023-04-10T23:41:45.586Z,15.80
2023-04-10T23:44:13.501Z,16.60
2023-04-10T23:46:41.415Z,16.30
2023-04-10T23:49:09.514Z,16.70
2023-04-10T23:51:37.350Z,17.50
2023-04-10T23:54:05.747Z,17.10
2023-04-10T23:56:33.700Z,17.20
2023-04-10T23:59:01.617Z,17.00
